Time,TemperatureF,DewpointF,PressureIn,WindDirection,WindDirectionDegrees,WindSpeedMPH,WindSpeedGustMPH,Humidity,HourlyPrecipIn,Conditions,Clouds,dailyrainin,SoftwareType,DateUTC
2013-01-25 00:02:00,26.0,18.0,-100.00,West,279,5.0,10.0,73,-99.99,,,-99.99,,2013-01-25 07:02:00,
2013-01-25 00:11:00,26.0,18.0,-100.00,South,177,2.0,10.0,72,-99.99,,,-99.99,,2013-01-25 07:11:00,
2013-01-25 00:21:00,26.0,18.0,-100.00,South,177,2.0,10.0,74,-99.99,,,-99.99,,2013-01-25 07:21:00,
2013-01-25 00:31:00,26.0,18.0,-100.00,South,177,2.0,12.0,74,-99.99,,,-99.99,,2013-01-25 07:31:00,
2013-01-25 00:42:00,26.0,18.0,-100.00,ENE,68,3.0,12.0,73,-99.99,,,-99.99,,2013-01-25 07:42:00,
2013-01-25 00:51:00,26.0,19.0,-100.00,ENE,68,3.0,9.0,74,-99.99,,,-99.99,,2013-01-25 07:51:00,
2013-01-25 01:01:00,25.0,20.0,-100.00,ENE,68,3.0,7.0,78,-99.99,,,-99.99,,2013-01-25 08:01:00,
2013-01-25 01:11:00,25.0,18.0,-100.00,SSE,160,2.0,7.0,77,-99.99,,,-99.99,,2013-01-25 08:11:00,
2013-01-25 01:21:00,26.0,19.0,-100.00,SSE,160,2.0,16.0,75,-99.99,,,-99.99,,2013-01-25 08:21:00,
2013-01-25 01:32:00,26.0,19.0,-100.00,SSE,160,2.0,8.0,76,-99.99,,,-99.99,,2013-01-25 08:32:00,
2013-01-25 01:41:00,26.0,19.0,-100.00,SSE,160,2.0,8.0,76,-99.99,,,-99.99,,2013-01-25 08:41:00,
2013-01-25 01:52:00,25.0,19.0,-100.00,SSE,160,2.0,8.0,78,-99.99,,,-99.99,,2013-01-25 08:52:00,
2013-01-25 02:01:00,26.0,20.0,-100.00,SSE,160,2.0,11.0,78,-99.99,,,-99.99,,2013-01-25 09:01:00,
2013-01-25 02:11:00,26.0,19.0,-100.00,SSE,160,2.0,11.0,76,-99.99,,,-99.99,,2013-01-25 09:11:00,
2013-01-25 02:21:00,25.0,18.0,-100.00,SSE,160,2.0,5.0,77,-99.99,,,-99.99,,2013-01-25 09:21:00,
2013-01-25 02:31:00,25.0,18.0,-100.00,SSE,160,2.0,6.0,77,-99.99,,,-99.99,,2013-01-25 09:31:00,
2013-01-25 02:41:00,25.0,18.0,-100.00,WNW,285,1.0,6.0,76,-99.99,,,-99.99,,2013-01-25 09:41:00,
2013-01-25 02:51:00,29.0,16.0,-100.00,WSW,251,5.0,17.0,59,-99.99,,,-99.99,,2013-01-25 09:51:00,
2013-01-25 03:01:00,26.0,20.0,-100.00,West,274,9.0,14.0,70,-99.99,,,-99.99,,2013-01-25 10:01:00,
2013-01-25 03:12:00,26.0,17.0,-100.00,West,262,9.0,14.0,70,-99.99,,,-99.99,,2013-01-25 10:12:00,
2013-01-25 03:21:00,28.0,17.0,-100.00,SW,222,15.0,20.0,65,-99.99,,,-99.99,,2013-01-25 10:21:00,
2013-01-25 03:31:00,27.0,18.0,-100.00,West,274,13.0,23.0,67,-99.99,,,-99.99,,2013-01-25 10:31:00,
2013-01-25 03:42:00,27.0,17.0,-100.00,WSW,239,15.0,23.0,67,-99.99,,,-99.99,,2013-01-25 10:42:00,
2013-01-25 03:51:00,27.0,18.0,-100.00,SSW,199,15.0,28.0,69,-99.99,,,-99.99,,2013-01-25 10:51:00,
2013-01-25 04:02:00,27.0,18.0,-100.00,WSW,251,15.0,21.0,69,-99.99,,,-99.99,,2013-01-25 11:02:00,
2013-01-25 04:11:00,27.0,18.0,-100.00,WSW,256,16.0,21.0,70,-99.99,,,-99.99,,2013-01-25 11:11:00,
2013-01-25 04:22:00,27.0,18.0,-100.00,WSW,239,14.0,21.0,71,-99.99,,,-99.99,,2013-01-25 11:22:00,
2013-01-25 04:32:00,27.0,18.0,-100.00,West,262,17.0,25.0,69,-99.99,,,-99.99,,2013-01-25 11:32:00,
2013-01-25 04:42:00,26.0,17.0,-100.00,West,262,16.0,25.0,71,-99.99,,,-99.99,,2013-01-25 11:42:00,
2013-01-25 04:52:00,26.0,19.0,-100.00,WSW,251,16.0,26.0,77,-99.99,,,-99.99,,2013-01-25 11:52:00,
2013-01-25 05:02:00,25.0,18.0,-100.00,West,268,15.0,15.0,77,-99.99,,,-99.99,,2013-01-25 12:02:00,
2013-01-25 05:11:00,25.0,18.0,-100.00,WSW,245,16.0,16.0,76,-99.99,,,-99.99,,2013-01-25 12:11:00,
2013-01-25 05:22:00,25.0,18.0,-100.00,WSW,251,13.0,22.0,77,-99.99,,,-99.99,,2013-01-25 12:22:00,
2013-01-25 05:32:00,25.0,18.0,-100.00,West,274,15.0,21.0,77,-99.99,,,-99.99,,2013-01-25 12:32:00,
2013-01-25 05:42:00,25.0,18.0,-100.00,South,188,16.0,21.0,77,-99.99,,,-99.99,,2013-01-25 12:42:00,
2013-01-25 05:52:00,25.0,18.0,-100.00,WSW,245,16.0,23.0,77,-99.99,,,-99.99,,2013-01-25 12:52:00,
2013-01-25 06:02:00,25.0,18.0,-100.00,WSW,245,16.0,25.0,77,-99.99,,,-99.99,,2013-01-25 13:02:00,
2013-01-25 06:11:00,25.0,18.0,-100.00,WSW,256,16.0,25.0,77,-99.99,,,-99.99,,2013-01-25 13:11:00,
2013-01-25 06:22:00,25.0,18.0,-100.00,WSW,256,17.0,24.0,74,-99.99,,,-99.99,,2013-01-25 13:22:00,
2013-01-25 06:32:00,25.0,19.0,-100.00,West,274,18.0,29.0,79,-99.99,,,-99.99,,2013-01-25 13:32:00,
2013-01-25 06:42:00,25.0,19.0,-100.00,SW,234,17.0,29.0,80,-99.99,,,-99.99,,2013-01-25 13:42:00,
2013-01-25 06:52:00,25.0,20.0,-100.00,West,279,18.0,25.0,81,-99.99,,,-99.99,,2013-01-25 13:52:00,
2013-01-25 07:02:00,25.0,20.0,-100.00,WSW,251,17.0,25.0,81,-99.99,,,-99.99,,2013-01-25 14:02:00,
2013-01-25 07:12:00,25.0,20.0,-100.00,SSW,211,12.0,25.0,82,-99.99,,,-99.99,,2013-01-25 14:12:00,
2013-01-25 07:22:00,25.0,19.0,-100.00,West,268,12.0,24.0,80,-99.99,,,-99.99,,2013-01-25 14:22:00,
2013-01-25 07:32:00,25.0,19.0,-100.00,West,268,14.0,22.0,79,-99.99,,,-99.99,,2013-01-25 14:32:00,
2013-01-25 07:42:00,25.0,19.0,-100.00,SW,234,16.0,22.0,79,-99.99,,,-99.99,,2013-01-25 14:42:00,
2013-01-25 07:52:00,26.0,20.0,-100.00,West,268,11.0,22.0,80,-99.99,,,-99.99,,2013-01-25 14:52:00,
2013-01-25 08:02:00,26.0,20.0,-100.00,West,268,11.0,22.0,80,-99.99,,,-99.99,,2013-01-25 15:02:00,
2013-01-25 08:12:00,26.0,19.0,-100.00,WSW,256,8.0,20.0,75,-99.99,,,-99.99,,2013-01-25 15:12:00,
2013-01-25 08:22:00,27.0,20.0,-100.00,WSW,256,8.0,18.0,76,-99.99,,,-99.99,,2013-01-25 15:22:00,
2013-01-25 08:32:00,27.0,19.0,-100.00,SSE,154,3.0,8.0,73,-99.99,,,-99.99,,2013-01-25 15:32:00,
2013-01-25 08:42:00,27.0,19.0,-100.00,SSE,154,3.0,8.0,74,-99.99,,,-99.99,,2013-01-25 15:42:00,
2013-01-25 08:53:00,27.0,19.0,-100.00,SSE,154,3.0,8.0,73,-99.99,,,-99.99,,2013-01-25 15:53:00,
2013-01-25 09:03:00,28.0,18.0,-100.00,WSW,251,3.0,15.0,68,-99.99,,,-99.99,,2013-01-25 16:03:00,
2013-01-25 09:12:00,28.0,18.0,-100.00,WSW,251,3.0,15.0,66,-99.99,,,-99.99,,2013-01-25 16:12:00,
2013-01-25 09:22:00,28.0,20.0,-100.00,WSW,251,3.0,8.0,71,-99.99,,,-99.99,,2013-01-25 16:22:00,
2013-01-25 09:32:00,29.0,20.0,-100.00,WSW,251,3.0,4.0,71,-99.99,,,-99.99,,2013-01-25 16:32:00,
2013-01-25 09:42:00,29.0,21.0,-100.00,West,279,2.0,4.0,72,-99.99,,,-99.99,,2013-01-25 16:42:00,
2013-01-25 09:52:00,28.0,20.0,-100.00,West,279,2.0,10.0,73,-99.99,,,-99.99,,2013-01-25 16:52:00,
2013-01-25 10:02:00,29.0,21.0,-100.00,West,279,2.0,9.0,73,-99.99,,,-99.99,,2013-01-25 17:02:00,
2013-01-25 10:12:00,29.0,21.0,-100.00,West,268,3.0,9.0,72,-99.99,,,-99.99,,2013-01-25 17:12:00,
2013-01-25 10:22:00,31.0,22.0,-100.00,WSW,251,5.0,11.0,69,-99.99,,,-99.99,,2013-01-25 17:22:00,
2013-01-25 10:32:00,33.0,20.0,-100.00,West,279,7.0,14.0,65,-99.99,,,-99.99,,2013-01-25 17:32:00,
2013-01-25 10:42:00,33.0,21.0,-100.00,WNW,285,9.0,14.0,62,-99.99,,,-99.99,,2013-01-25 17:42:00,
2013-01-25 10:52:00,31.0,21.0,-100.00,West,268,9.0,20.0,68,-99.99,,,-99.99,,2013-01-25 17:52:00,
2013-01-25 11:02:00,29.0,23.0,-100.00,NNW,348,13.0,17.0,74,-99.99,,,-99.99,,2013-01-25 18:02:00,
2013-01-25 11:11:00,29.0,21.0,-100.00,WSW,256,12.0,17.0,74,-99.99,,,-99.99,,2013-01-25 18:11:00,
2013-01-25 11:23:00,29.0,22.0,-100.00,West,262,8.0,15.0,75,-99.99,,,-99.99,,2013-01-25 18:23:00,
2013-01-25 11:32:00,31.0,20.0,-100.00,West,274,9.0,14.0,71,-99.99,,,-99.99,,2013-01-25 18:32:00,
2013-01-25 11:42:00,31.0,22.0,-100.00,WNW,302,6.0,14.0,70,-99.99,,,-99.99,,2013-01-25 18:42:00,
2013-01-25 11:52:00,34.0,23.0,-100.00,West,279,10.0,19.0,65,-99.99,,,-99.99,,2013-01-25 18:52:00,
2013-01-25 12:02:00,36.0,21.0,-100.00,North,0,4.0,10.0,60,-99.99,,,-99.99,,2013-01-25 19:02:00,
2013-01-25 12:12:00,36.0,23.0,-100.00,North,0,4.0,10.0,61,-99.99,,,-99.99,,2013-01-25 19:12:00,
2013-01-25 12:22:00,33.0,22.0,-100.00,North,0,4.0,10.0,64,-99.99,,,-99.99,,2013-01-25 19:22:00,
2013-01-25 12:32:00,34.0,23.0,-100.00,WSW,256,3.0,10.0,64,-99.99,,,-99.99,,2013-01-25 19:32:00,
2013-01-25 12:42:00,35.0,23.0,-100.00,WSW,256,3.0,10.0,62,-99.99,,,-99.99,,2013-01-25 19:42:00,
2013-01-25 12:52:00,37.0,23.0,-100.00,WSW,256,3.0,10.0,56,-99.99,,,-99.99,,2013-01-25 19:52:00,
2013-01-25 13:02:00,33.0,25.0,-100.00,WSW,256,3.0,9.0,63,-99.99,,,-99.99,,2013-01-25 20:02:00,
2013-01-25 13:12:00,33.0,22.0,-100.00,WSW,256,3.0,9.0,65,-99.99,,,-99.99,,2013-01-25 20:12:00,
2013-01-25 13:22:00,34.0,22.0,-100.00,West,279,2.0,8.0,63,-99.99,,,-99.99,,2013-01-25 20:22:00,
2013-01-25 13:32:00,33.0,22.0,-100.00,West,279,2.0,10.0,62,-99.99,,,-99.99,,2013-01-25 20:32:00,
2013-01-25 13:42:00,34.0,22.0,-100.00,West,279,2.0,10.0,63,-99.99,,,-99.99,,2013-01-25 20:42:00,
2013-01-25 13:52:00,33.0,21.0,-100.00,West,279,2.0,9.0,63,-99.99,,,-99.99,,2013-01-25 20:52:00,
2013-01-25 14:02:00,34.0,20.0,-100.00,NE,40,2.0,9.0,60,-99.99,,,-99.99,,2013-01-25 21:02:00,
2013-01-25 14:11:00,34.0,22.0,-100.00,NE,40,2.0,9.0,62,-99.99,,,-99.99,,2013-01-25 21:11:00,
2013-01-25 14:22:00,33.0,21.0,-100.00,NE,40,2.0,10.0,62,-99.99,,,-99.99,,2013-01-25 21:22:00,
2013-01-25 14:32:00,32.0,22.0,-100.00,WSW,245,2.0,9.0,65,-99.99,,,-99.99,,2013-01-25 21:32:00,
2013-01-25 14:42:00,32.0,22.0,-100.00,WSW,245,2.0,9.0,68,-99.99,,,-99.99,,2013-01-25 21:42:00,
2013-01-25 14:52:00,32.0,21.0,-100.00,WSW,239,3.0,11.0,64,-99.99,,,-99.99,,2013-01-25 21:52:00,
2013-01-25 15:02:00,31.0,22.0,-100.00,NNW,348,7.0,14.0,66,-99.99,,,-99.99,,2013-01-25 22:02:00,
2013-01-25 15:11:00,31.0,20.0,-100.00,NNW,348,7.0,14.0,65,-99.99,,,-99.99,,2013-01-25 22:11:00,
2013-01-25 15:22:00,31.0,22.0,-100.00,NNW,348,7.0,10.0,70,-99.99,,,-99.99,,2013-01-25 22:22:00,
2013-01-25 15:32:00,31.0,22.0,-100.00,WSW,256,3.0,11.0,70,-99.99,,,-99.99,,2013-01-25 22:32:00,
2013-01-25 15:42:00,31.0,22.0,-100.00,WSW,256,3.0,11.0,69,-99.99,,,-99.99,,2013-01-25 22:42:00,
2013-01-25 15:51:00,31.0,23.0,-100.00,WSW,256,3.0,8.0,72,-99.99,,,-99.99,,2013-01-25 22:51:00,
2013-01-25 16:02:00,31.0,23.0,-100.00,WSW,256,3.0,8.0,72,-99.99,,,-99.99,,2013-01-25 23:02:00,
2013-01-25 16:11:00,31.0,23.0,-100.00,NNE,28,2.0,8.0,72,-99.99,,,-99.99,,2013-01-25 23:11:00,
2013-01-25 16:22:00,30.0,22.0,-100.00,NNE,28,2.0,7.0,72,-99.99,,,-99.99,,2013-01-25 23:22:00,
2013-01-25 16:32:00,30.0,22.0,-100.00,NNE,28,2.0,10.0,74,-99.99,,,-99.99,,2013-01-25 23:32:00,
2013-01-25 16:42:00,30.0,22.0,-100.00,NNE,28,2.0,10.0,74,-99.99,,,-99.99,,2013-01-25 23:42:00,
2013-01-25 16:52:00,29.0,22.0,-100.00,NNE,28,2.0,6.0,76,-99.99,,,-99.99,,2013-01-25 23:52:00,
2013-01-25 17:01:00,29.0,22.0,-100.00,NNE,28,2.0,2.0,76,-99.99,,,-99.99,,2013-01-26 00:01:00,
2013-01-25 17:11:00,29.0,22.0,-100.00,NNE,28,2.0,2.0,74,-99.99,,,-99.99,,2013-01-26 00:11:00,
2013-01-25 17:22:00,29.0,22.0,-100.00,NNE,28,2.0,7.0,75,-99.99,,,-99.99,,2013-01-26 00:22:00,
2013-01-25 17:32:00,29.0,22.0,-100.00,ENE,57,1.0,10.0,77,-99.99,,,-99.99,,2013-01-26 00:32:00,
2013-01-25 17:42:00,28.0,21.0,-100.00,ENE,57,1.0,10.0,77,-99.99,,,-99.99,,2013-01-26 00:42:00,
2013-01-25 17:52:00,29.0,22.0,-100.00,ENE,57,1.0,10.0,77,-99.99,,,-99.99,,2013-01-26 00:52:00,
2013-01-25 18:01:00,29.0,22.0,-100.00,ENE,57,1.0,16.0,77,-99.99,,,-99.99,,2013-01-26 01:01:00,
2013-01-25 18:11:00,29.0,23.0,-100.00,NE,51,2.0,16.0,78,-99.99,,,-99.99,,2013-01-26 01:11:00,
2013-01-25 18:22:00,29.0,22.0,-100.00,NE,51,2.0,11.0,75,-99.99,,,-99.99,,2013-01-26 01:22:00,
2013-01-25 18:32:00,29.0,22.0,-100.00,NE,51,2.0,11.0,76,-99.99,,,-99.99,,2013-01-26 01:32:00,
2013-01-25 18:42:00,29.0,22.0,-100.00,NE,51,2.0,11.0,76,-99.99,,,-99.99,,2013-01-26 01:42:00,
2013-01-25 18:52:00,28.0,21.0,-100.00,NE,51,2.0,6.0,77,-99.99,,,-99.99,,2013-01-26 01:52:00,
2013-01-25 19:01:00,29.0,22.0,-100.00,NE,51,2.0,6.0,77,-99.99,,,-99.99,,2013-01-26 02:01:00,
2013-01-25 19:11:00,29.0,22.0,-100.00,West,279,1.0,6.0,76,-99.99,,,-99.99,,2013-01-26 02:11:00,
2013-01-25 19:22:00,29.0,22.0,-100.00,West,279,1.0,6.0,76,-99.99,,,-99.99,,2013-01-26 02:22:00,
2013-01-25 19:32:00,29.0,22.0,-100.00,West,274,5.0,15.0,77,-99.99,,,-99.99,,2013-01-26 02:32:00,
2013-01-25 19:42:00,29.0,22.0,-100.00,West,274,5.0,15.0,77,-99.99,,,-99.99,,2013-01-26 02:42:00,
2013-01-25 19:52:00,29.0,23.0,-100.00,SW,222,3.0,10.0,78,-99.99,,,-99.99,,2013-01-26 02:52:00,
2013-01-25 20:01:00,29.0,23.0,-100.00,SW,222,3.0,11.0,78,-99.99,,,-99.99,,2013-01-26 03:01:00,
2013-01-25 20:11:00,29.0,22.0,-100.00,SW,222,3.0,11.0,76,-99.99,,,-99.99,,2013-01-26 03:11:00,
2013-01-25 20:21:00,28.0,22.0,-100.00,SW,222,3.0,7.0,78,-99.99,,,-99.99,,2013-01-26 03:21:00,
2013-01-25 20:31:00,29.0,23.0,-100.00,SW,222,3.0,9.0,78,-99.99,,,-99.99,,2013-01-26 03:31:00,
2013-01-25 20:42:00,29.0,23.0,-100.00,SW,222,3.0,9.0,78,-99.99,,,-99.99,,2013-01-26 03:42:00,
2013-01-25 20:51:00,29.0,22.0,-100.00,ENE,68,1.0,10.0,76,-99.99,,,-99.99,,2013-01-26 03:51:00,
2013-01-25 21:02:00,29.0,22.0,-100.00,ENE,68,1.0,10.0,75,-99.99,,,-99.99,,2013-01-26 04:02:00,
2013-01-25 21:12:00,29.0,22.0,-100.00,ENE,68,1.0,10.0,75,-99.99,,,-99.99,,2013-01-26 04:12:00,
2013-01-25 21:21:00,29.0,23.0,-100.00,ENE,68,1.0,7.0,78,-99.99,,,-99.99,,2013-01-26 04:21:00,
2013-01-25 21:32:00,29.0,23.0,-100.00,ENE,68,1.0,7.0,78,-99.99,,,-99.99,,2013-01-26 04:32:00,
2013-01-25 21:42:00,29.0,23.0,-100.00,ENE,68,1.0,7.0,79,-99.99,,,-99.99,,2013-01-26 04:42:00,
2013-01-25 21:52:00,29.0,22.0,-100.00,East,97,1.0,10.0,76,-99.99,,,-99.99,,2013-01-26 04:52:00,
2013-01-25 22:03:00,29.0,22.0,-100.00,East,97,1.0,9.0,76,-99.99,,,-99.99,,2013-01-26 05:03:00,
2013-01-25 22:12:00,29.0,22.0,-100.00,East,97,1.0,9.0,77,-99.99,,,-99.99,,2013-01-26 05:12:00,
2013-01-25 22:23:00,29.0,23.0,-100.00,East,97,1.0,8.0,78,-99.99,,,-99.99,,2013-01-26 05:23:00,
2013-01-25 22:33:00,29.0,23.0,-100.00,East,97,1.0,7.0,78,-99.99,,,-99.99,,2013-01-26 05:33:00,
2013-01-25 22:41:00,29.0,23.0,-100.00,East,97,1.0,7.0,78,-99.99,,,-99.99,,2013-01-26 05:41:00,
2013-01-25 22:52:00,29.0,23.0,-100.00,East,97,1.0,11.0,80,-99.99,,,-99.99,,2013-01-26 05:52:00,
2013-01-25 23:02:00,29.0,23.0,-100.00,East,97,1.0,10.0,80,-99.99,,,-99.99,,2013-01-26 06:02:00,
2013-01-25 23:12:00,29.0,24.0,-100.00,East,97,1.0,10.0,81,-99.99,,,-99.99,,2013-01-26 06:12:00,
2013-01-25 23:21:00,29.0,24.0,-100.00,East,97,1.0,6.0,83,-99.99,,,-99.99,,2013-01-26 06:21:00,
2013-01-25 23:31:00,29.0,23.0,-100.00,East,97,1.0,6.0,81,-99.99,,,-99.99,,2013-01-26 06:31:00,
2013-01-25 23:41:00,29.0,24.0,-100.00,East,97,1.0,6.0,81,-99.99,,,-99.99,,2013-01-26 06:41:00,
2013-01-25 23:51:00,27.0,22.0,-100.00,East,97,-999.0,8.0,83,-99.99,,,-99.99,,2013-01-26 06:51:00,